sensor_id;sensor_type;location;lat;lon;timestamp;P1;durP1;ratioP1;P2;durP2;ratioP2
35245;SDS011;21379;50.962;6.960;2023-12-04T00:00:54;18.65;;;7.53;;
35245;SDS011;21379;50.962;6.960;2023-12-04T00:03:20;23.70;;;9.45;;
35245;SDS011;21379;50.962;6.960;2023-12-04T00:05:47;16.27;;;7.28;;
35245;SDS011;21379;50.962;6.960;2023-12-04T00:08:14;15.65;;;6.40;;
35245;SDS011;21379;50.962;6.960;2023-12-04T00:10:41;16.75;;;7.78;;
35245;SDS011;21379;50.962;6.960;2023-12-04T00:13:07;15.85;;;8.40;;
35245;SDS011;21379;50.962;6.960;2023-12-04T00:15:35;16.13;;;7.07;;
35245;SDS011;21379;50.962;6.960;2023-12-04T00:18:02;16.75;;;7.63;;
35245;SDS011;21379;50.962;6.960;2023-12-04T00:20:30;15.13;;;7.30;;
35245;SDS011;21379;50.962;6.960;2023-12-04T00:22:56;15.98;;;6.78;;
35245;SDS011;21379;50.962;6.960;2023-12-04T00:25:23;15.30;;;7.30;;
35245;SDS011;21379;50.962;6.960;2023-12-04T00:27:50;13.55;;;6.43;;
35245;SDS011;21379;50.962;6.960;2023-12-04T00:30:16;15.15;;;6.28;;
35245;SDS011;21379;50.962;6.960;2023-12-04T00:32:44;13.90;;;6.72;;
35245;SDS011;21379;50.962;6.960;2023-12-04T00:35:11;18.08;;;8.15;;
35245;SDS011;21379;50.962;6.960;2023-12-04T00:37:38;13.77;;;6.93;;
35245;SDS011;21379;50.962;6.960;2023-12-04T00:40:05;15.73;;;6.88;;
35245;SDS011;21379;50.962;6.960;2023-12-04T00:42:33;12.25;;;5.35;;
35245;SDS011;21379;50.962;6.960;2023-12-04T00:44:59;13.85;;;6.78;;
35245;SDS011;21379;50.962;6.960;2023-12-04T00:47:26;15.82;;;6.85;;
35245;SDS011;21379;50.962;6.960;2023-12-04T00:49:56;14.88;;;7.22;;
35245;SDS011;21379;50.962;6.960;2023-12-04T00:52:22;16.45;;;7.22;;
35245;SDS011;21379;50.962;6.960;2023-12-04T00:54:49;20.08;;;7.85;;
35245;SDS011;21379;50.962;6.960;2023-12-04T00:57:16;14.38;;;7.68;;
35245;SDS011;21379;50.962;6.960;2023-12-04T00:59:43;14.52;;;6.88;;
35245;SDS011;21379;50.962;6.960;2023-12-04T01:02:09;12.43;;;6.50;;
35245;SDS011;21379;50.962;6.960;2023-12-04T01:04:38;13.98;;;6.68;;
35245;SDS011;21379;50.962;6.960;2023-12-04T01:07:07;14.85;;;6.82;;
35245;SDS011;21379;50.962;6.960;2023-12-04T01:09:34;15.82;;;6.60;;
35245;SDS011;21379;50.962;6.960;2023-12-04T01:12:01;16.52;;;6.47;;
35245;SDS011;21379;50.962;6.960;2023-12-04T01:14:28;15.77;;;7.20;;
35245;SDS011;21379;50.962;6.960;2023-12-04T01:16:54;16.90;;;7.43;;
35245;SDS011;21379;50.962;6.960;2023-12-04T01:19:21;14.38;;;6.70;;
35245;SDS011;21379;50.962;6.960;2023-12-04T01:21:48;13.60;;;6.28;;
35245;SDS011;21379;50.962;6.960;2023-12-04T01:24:16;14.23;;;6.03;;
35245;SDS011;21379;50.962;6.960;2023-12-04T01:26:42;12.40;;;6.22;;
35245;SDS011;21379;50.962;6.960;2023-12-04T01:29:09;12.65;;;6.03;;
35245;SDS011;21379;50.962;6.960;2023-12-04T01:31:35;13.90;;;6.15;;
35245;SDS011;21379;50.962;6.960;2023-12-04T01:34:02;12.75;;;5.90;;
35245;SDS011;21379;50.962;6.960;2023-12-04T01:36:29;17.10;;;6.70;;
35245;SDS011;21379;50.962;6.960;2023-12-04T01:38:58;16.38;;;7.13;;
35245;SDS011;21379;50.962;6.960;2023-12-04T01:41:26;14.68;;;6.95;;
35245;SDS011;21379;50.962;6.960;2023-12-04T01:43:53;13.98;;;6.13;;
35245;SDS011;21379;50.962;6.960;2023-12-04T01:46:19;11.38;;;5.70;;
35245;SDS011;21379;50.962;6.960;2023-12-04T01:48:46;16.58;;;7.25;;
35245;SDS011;21379;50.962;6.960;2023-12-04T01:51:13;12.50;;;5.63;;
35245;SDS011;21379;50.962;6.960;2023-12-04T01:53:40;14.43;;;6.32;;
35245;SDS011;21379;50.962;6.960;2023-12-04T01:56:08;12.55;;;5.60;;
35245;SDS011;21379;50.962;6.960;2023-12-04T01:58:36;11.25;;;5.38;;
35245;SDS011;21379;50.962;6.960;2023-12-04T02:01:04;12.85;;;6.10;;
35245;SDS011;21379;50.962;6.960;2023-12-04T02:03:31;13.40;;;5.85;;
35245;SDS011;21379;50.962;6.960;2023-12-04T02:05:58;13.52;;;6.00;;
35245;SDS011;21379;50.962;6.960;2023-12-04T02:08:27;13.68;;;6.57;;
35245;SDS011;21379;50.962;6.960;2023-12-04T02:10:54;14.70;;;6.07;;
35245;SDS011;21379;50.962;6.960;2023-12-04T02:13:21;11.45;;;4.80;;
35245;SDS011;21379;50.962;6.960;2023-12-04T02:15:51;13.70;;;6.10;;
35245;SDS011;21379;50.962;6.960;2023-12-04T02:18:19;11.27;;;6.63;;
35245;SDS011;21379;50.962;6.960;2023-12-04T02:20:47;10.57;;;5.10;;
35245;SDS011;21379;50.962;6.960;2023-12-04T02:23:14;13.57;;;7.03;;
35245;SDS011;21379;50.962;6.960;2023-12-04T02:25:41;11.82;;;6.05;;
35245;SDS011;21379;50.962;6.960;2023-12-04T02:28:09;14.93;;;6.15;;
35245;SDS011;21379;50.962;6.960;2023-12-04T02:30:38;12.60;;;5.75;;
35245;SDS011;21379;50.962;6.960;2023-12-04T02:33:05;12.32;;;5.65;;
35245;SDS011;21379;50.962;6.960;2023-12-04T02:35:33;15.43;;;6.22;;
35245;SDS011;21379;50.962;6.960;2023-12-04T02:38:00;12.35;;;5.82;;
35245;SDS011;21379;50.962;6.960;2023-12-04T02:40:27;11.73;;;6.07;;
35245;SDS011;21379;50.962;6.960;2023-12-04T02:42:55;15.38;;;6.45;;
35245;SDS011;21379;50.962;6.960;2023-12-04T02:45:23;12.35;;;5.38;;
35245;SDS011;21379;50.962;6.960;2023-12-04T02:47:49;12.70;;;5.57;;
35245;SDS011;21379;50.962;6.960;2023-12-04T02:50:16;14.63;;;6.35;;
35245;SDS011;21379;50.962;6.960;2023-12-04T02:52:42;12.10;;;5.85;;
35245;SDS011;21379;50.962;6.960;2023-12-04T02:55:09;14.07;;;5.88;;
35245;SDS011;21379;50.962;6.960;2023-12-04T02:57:36;13.68;;;6.55;;
35245;SDS011;21379;50.962;6.960;2023-12-04T03:00:04;14.45;;;5.95;;
35245;SDS011;21379;50.962;6.960;2023-12-04T03:02:32;11.38;;;6.43;;
35245;SDS011;21379;50.962;6.960;2023-12-04T03:04:59;15.32;;;5.97;;
35245;SDS011;21379;50.962;6.960;2023-12-04T03:07:26;12.65;;;5.90;;
35245;SDS011;21379;50.962;6.960;2023-12-04T03:09:52;11.63;;;5.75;;
35245;SDS011;21379;50.962;6.960;2023-12-04T03:12:19;15.13;;;5.97;;
35245;SDS011;21379;50.962;6.960;2023-12-04T03:14:46;11.15;;;5.22;;
35245;SDS011;21379;50.962;6.960;2023-12-04T03:17:14;13.05;;;6.15;;
35245;SDS011;21379;50.962;6.960;2023-12-04T03:19:40;14.55;;;5.88;;
35245;SDS011;21379;50.962;6.960;2023-12-04T03:22:07;12.15;;;5.88;;
35245;SDS011;21379;50.962;6.960;2023-12-04T03:24:34;12.50;;;5.40;;
35245;SDS011;21379;50.962;6.960;2023-12-04T03:27:00;13.32;;;5.97;;
35245;SDS011;21379;50.962;6.960;2023-12-04T03:29:27;12.45;;;6.15;;
35245;SDS011;21379;50.962;6.960;2023-12-04T03:31:54;13.32;;;6.38;;
35245;SDS011;21379;50.962;6.960;2023-12-04T03:34:22;8.70;;;5.30;;
35245;SDS011;21379;50.962;6.960;2023-12-04T03:36:48;11.32;;;5.28;;
35245;SDS011;21379;50.962;6.960;2023-12-04T03:39:15;11.27;;;5.60;;
35245;SDS011;21379;50.962;6.960;2023-12-04T03:41:41;12.27;;;5.53;;
35245;SDS011;21379;50.962;6.960;2023-12-04T03:44:08;11.15;;;5.50;;
35245;SDS011;21379;50.962;6.960;2023-12-04T03:46:35;11.55;;;6.38;;
35245;SDS011;21379;50.962;6.960;2023-12-04T03:49:02;16.25;;;6.65;;
35245;SDS011;21379;50.962;6.960;2023-12-04T03:51:30;12.48;;;5.47;;
35245;SDS011;21379;50.962;6.960;2023-12-04T03:53:57;15.48;;;5.95;;
35245;SDS011;21379;50.962;6.960;2023-12-04T03:56:23;11.15;;;5.40;;
35245;SDS011;21379;50.962;6.960;2023-12-04T03:58:50;14.13;;;6.70;;
35245;SDS011;21379;50.962;6.960;2023-12-04T04:01:17;13.05;;;6.22;;
35245;SDS011;21379;50.962;6.960;2023-12-04T04:03:43;13.93;;;5.93;;
35245;SDS011;21379;50.962;6.960;2023-12-04T04:06:11;13.20;;;6.13;;
35245;SDS011;21379;50.962;6.960;2023-12-04T04:08:39;15.27;;;7.32;;
35245;SDS011;21379;50.962;6.960;2023-12-04T04:11:06;12.65;;;6.22;;
35245;SDS011;21379;50.962;6.960;2023-12-04T04:13:33;11.82;;;6.05;;
35245;SDS011;21379;50.962;6.960;2023-12-04T04:15:59;15.50;;;6.60;;
35245;SDS011;21379;50.962;6.960;2023-12-04T04:18:26;16.40;;;6.63;;
35245;SDS011;21379;50.962;6.960;2023-12-04T04:20:53;12.70;;;6.40;;
35245;SDS011;21379;50.962;6.960;2023-12-04T04:23:19;13.52;;;6.00;;
35245;SDS011;21379;50.962;6.960;2023-12-04T04:25:47;14.13;;;7.15;;
35245;SDS011;21379;50.962;6.960;2023-12-04T04:28:14;12.48;;;5.80;;
35245;SDS011;21379;50.962;6.960;2023-12-04T04:30:41;14.57;;;6.35;;
35245;SDS011;21379;50.962;6.960;2023-12-04T04:33:07;13.32;;;5.72;;
35245;SDS011;21379;50.962;6.960;2023-12-04T04:35:34;12.63;;;5.60;;
35245;SDS011;21379;50.962;6.960;2023-12-04T04:38:01;13.02;;;6.47;;
35245;SDS011;21379;50.962;6.960;2023-12-04T04:40:27;12.77;;;6.40;;
35245;SDS011;21379;50.962;6.960;2023-12-04T04:42:55;18.30;;;7.50;;
35245;SDS011;21379;50.962;6.960;2023-12-04T04:45:22;15.32;;;6.47;;
35245;SDS011;21379;50.962;6.960;2023-12-04T04:47:49;12.90;;;5.95;;
35245;SDS011;21379;50.962;6.960;2023-12-04T04:50:15;12.45;;;5.65;;
35245;SDS011;21379;50.962;6.960;2023-12-04T04:52:42;15.27;;;6.53;;
35245;SDS011;21379;50.962;6.960;2023-12-04T04:55:08;12.43;;;6.40;;
35245;SDS011;21379;50.962;6.960;2023-12-04T04:57:35;13.50;;;6.43;;
35245;SDS011;21379;50.962;6.960;2023-12-04T05:00:03;10.60;;;6.28;;
35245;SDS011;21379;50.962;6.960;2023-12-04T05:02:31;15.68;;;7.03;;
35245;SDS011;21379;50.962;6.960;2023-12-04T05:04:58;14.63;;;7.47;;
35245;SDS011;21379;50.962;6.960;2023-12-04T05:07:24;16.02;;;7.25;;
35245;SDS011;21379;50.962;6.960;2023-12-04T05:09:51;13.98;;;7.05;;
35245;SDS011;21379;50.962;6.960;2023-12-04T05:12:18;14.32;;;6.13;;
35245;SDS011;21379;50.962;6.960;2023-12-04T05:14:44;21.60;;;7.60;;
35245;SDS011;21379;50.962;6.960;2023-12-04T05:17:12;13.73;;;6.70;;
35245;SDS011;21379;50.962;6.960;2023-12-04T05:19:39;16.10;;;6.60;;
35245;SDS011;21379;50.962;6.960;2023-12-04T05:22:06;16.35;;;7.00;;
35245;SDS011;21379;50.962;6.960;2023-12-04T05:24:32;15.88;;;6.18;;
35245;SDS011;21379;50.962;6.960;2023-12-04T05:27:00;14.10;;;6.60;;
35245;SDS011;21379;50.962;6.960;2023-12-04T05:29:27;15.77;;;7.43;;
35245;SDS011;21379;50.962;6.960;2023-12-04T05:31:54;13.27;;;6.18;;
35245;SDS011;21379;50.962;6.960;2023-12-04T05:34:23;18.30;;;8.25;;
35245;SDS011;21379;50.962;6.960;2023-12-04T05:36:50;15.02;;;7.50;;
35245;SDS011;21379;50.962;6.960;2023-12-04T05:39:16;14.18;;;6.65;;
35245;SDS011;21379;50.962;6.960;2023-12-04T05:41:43;14.20;;;6.97;;
35245;SDS011;21379;50.962;6.960;2023-12-04T05:44:10;17.48;;;7.72;;
35245;SDS011;21379;50.962;6.960;2023-12-04T05:46:36;13.48;;;6.97;;
35245;SDS011;21379;50.962;6.960;2023-12-04T05:49:03;17.58;;;7.85;;
35245;SDS011;21379;50.962;6.960;2023-12-04T05:51:31;16.00;;;7.53;;
35245;SDS011;21379;50.962;6.960;2023-12-04T05:53:58;21.65;;;9.48;;
35245;SDS011;21379;50.962;6.960;2023-12-04T05:56:24;14.52;;;6.88;;
35245;SDS011;21379;50.962;6.960;2023-12-04T05:58:54;16.00;;;7.68;;
35245;SDS011;21379;50.962;6.960;2023-12-04T06:01:21;18.05;;;7.70;;
35245;SDS011;21379;50.962;6.960;2023-12-04T06:03:47;15.48;;;7.35;;
35245;SDS011;21379;50.962;6.960;2023-12-04T06:06:14;16.88;;;8.02;;
35245;SDS011;21379;50.962;6.960;2023-12-04T06:08:42;16.55;;;7.50;;
35245;SDS011;21379;50.962;6.960;2023-12-04T06:11:09;14.55;;;6.93;;
35245;SDS011;21379;50.962;6.960;2023-12-04T06:13:36;20.10;;;8.10;;
35245;SDS011;21379;50.962;6.960;2023-12-04T06:16:02;20.05;;;8.15;;
35245;SDS011;21379;50.962;6.960;2023-12-04T06:18:30;16.50;;;7.80;;
35245;SDS011;21379;50.962;6.960;2023-12-04T06:20:56;18.02;;;8.05;;
35245;SDS011;21379;50.962;6.960;2023-12-04T06:23:23;17.83;;;7.57;;
35245;SDS011;21379;50.962;6.960;2023-12-04T06:25:52;14.02;;;7.15;;
35245;SDS011;21379;50.962;6.960;2023-12-04T06:28:19;17.70;;;8.00;;
35245;SDS011;21379;50.962;6.960;2023-12-04T06:30:46;16.00;;;8.07;;
35245;SDS011;21379;50.962;6.960;2023-12-04T06:33:14;15.43;;;8.35;;
35245;SDS011;21379;50.962;6.960;2023-12-04T06:35:45;15.35;;;7.72;;
35245;SDS011;21379;50.962;6.960;2023-12-04T06:38:13;16.00;;;8.57;;
35245;SDS011;21379;50.962;6.960;2023-12-04T06:40:41;19.13;;;9.45;;
35245;SDS011;21379;50.962;6.960;2023-12-04T06:43:10;20.23;;;8.68;;
35245;SDS011;21379;50.962;6.960;2023-12-04T06:45:37;18.52;;;8.30;;
35245;SDS011;21379;50.962;6.960;2023-12-04T06:48:05;17.17;;;8.57;;
35245;SDS011;21379;50.962;6.960;2023-12-04T06:50:33;18.60;;;8.00;;
35245;SDS011;21379;50.962;6.960;2023-12-04T06:53:00;18.83;;;7.00;;
35245;SDS011;21379;50.962;6.960;2023-12-04T06:55:29;18.00;;;8.05;;
35245;SDS011;21379;50.962;6.960;2023-12-04T06:57:56;15.50;;;7.75;;
35245;SDS011;21379;50.962;6.960;2023-12-04T07:00:24;16.48;;;7.53;;
35245;SDS011;21379;50.962;6.960;2023-12-04T07:02:51;16.88;;;8.27;;
35245;SDS011;21379;50.962;6.960;2023-12-04T07:05:18;16.70;;;7.10;;
35245;SDS011;21379;50.962;6.960;2023-12-04T07:07:45;14.70;;;7.47;;
35245;SDS011;21379;50.962;6.960;2023-12-04T07:10:12;15.77;;;7.45;;
35245;SDS011;21379;50.962;6.960;2023-12-04T07:12:39;21.67;;;8.30;;
35245;SDS011;21379;50.962;6.960;2023-12-04T07:15:07;15.57;;;7.10;;
35245;SDS011;21379;50.962;6.960;2023-12-04T07:17:37;16.02;;;6.85;;
35245;SDS011;21379;50.962;6.960;2023-12-04T07:20:05;16.13;;;7.35;;
35245;SDS011;21379;50.962;6.960;2023-12-04T07:22:32;12.35;;;6.53;;
35245;SDS011;21379;50.962;6.960;2023-12-04T07:24:59;14.25;;;6.75;;
35245;SDS011;21379;50.962;6.960;2023-12-04T07:27:26;15.77;;;6.72;;
35245;SDS011;21379;50.962;6.960;2023-12-04T07:29:53;13.50;;;7.30;;
35245;SDS011;21379;50.962;6.960;2023-12-04T07:32:19;13.93;;;6.72;;
35245;SDS011;21379;50.962;6.960;2023-12-04T07:34:47;14.20;;;7.05;;
35245;SDS011;21379;50.962;6.960;2023-12-04T07:37:14;16.30;;;7.95;;
35245;SDS011;21379;50.962;6.960;2023-12-04T07:39:41;17.40;;;7.35;;
35245;SDS011;21379;50.962;6.960;2023-12-04T07:42:11;14.93;;;6.45;;
35245;SDS011;21379;50.962;6.960;2023-12-04T07:44:37;12.27;;;6.38;;
35245;SDS011;21379;50.962;6.960;2023-12-04T07:47:04;12.52;;;6.55;;
35245;SDS011;21379;50.962;6.960;2023-12-04T07:49:31;13.23;;;6.28;;
35245;SDS011;21379;50.962;6.960;2023-12-04T07:51:59;13.45;;;6.97;;
35245;SDS011;21379;50.962;6.960;2023-12-04T07:54:25;13.63;;;5.90;;
35245;SDS011;21379;50.962;6.960;2023-12-04T07:56:52;13.02;;;6.28;;
35245;SDS011;21379;50.962;6.960;2023-12-04T07:59:19;12.63;;;6.32;;
35245;SDS011;21379;50.962;6.960;2023-12-04T08:01:46;15.25;;;6.57;;
35245;SDS011;21379;50.962;6.960;2023-12-04T08:04:12;14.55;;;7.55;;
35245;SDS011;21379;50.962;6.960;2023-12-04T08:06:39;14.43;;;6.85;;
35245;SDS011;21379;50.962;6.960;2023-12-04T08:09:07;13.30;;;6.80;;
35245;SDS011;21379;50.962;6.960;2023-12-04T08:11:35;15.18;;;7.13;;
35245;SDS011;21379;50.962;6.960;2023-12-04T08:14:02;15.48;;;6.70;;
35245;SDS011;21379;50.962;6.960;2023-12-04T08:16:28;15.80;;;6.78;;
35245;SDS011;21379;50.962;6.960;2023-12-04T08:18:55;12.98;;;6.18;;
35245;SDS011;21379;50.962;6.960;2023-12-04T08:21:22;12.60;;;6.07;;
35245;SDS011;21379;50.962;6.960;2023-12-04T08:23:48;15.65;;;6.53;;
35245;SDS011;21379;50.962;6.960;2023-12-04T08:26:21;10.27;;;5.28;;
35245;SDS011;21379;50.962;6.960;2023-12-04T08:28:49;11.52;;;6.30;;
35245;SDS011;21379;50.962;6.960;2023-12-04T08:31:16;15.07;;;6.60;;
35245;SDS011;21379;50.962;6.960;2023-12-04T08:33:42;12.80;;;5.47;;
35245;SDS011;21379;50.962;6.960;2023-12-04T08:36:10;13.23;;;7.18;;
35245;SDS011;21379;50.962;6.960;2023-12-04T08:38:37;11.02;;;6.28;;
35245;SDS011;21379;50.962;6.960;2023-12-04T08:41:04;13.13;;;6.22;;
35245;SDS011;21379;50.962;6.960;2023-12-04T08:43:32;13.13;;;5.70;;
35245;SDS011;21379;50.962;6.960;2023-12-04T08:45:59;12.90;;;6.18;;
35245;SDS011;21379;50.962;6.960;2023-12-04T08:48:26;12.13;;;5.55;;
35245;SDS011;21379;50.962;6.960;2023-12-04T08:50:53;12.73;;;6.45;;
35245;SDS011;21379;50.962;6.960;2023-12-04T08:53:19;11.40;;;5.65;;
35245;SDS011;21379;50.962;6.960;2023-12-04T08:55:46;11.82;;;6.40;;
35245;SDS011;21379;50.962;6.960;2023-12-04T08:58:13;12.13;;;6.22;;
35245;SDS011;21379;50.962;6.960;2023-12-04T09:00:41;10.88;;;5.50;;
35245;SDS011;21379;50.962;6.960;2023-12-04T09:03:08;11.90;;;5.93;;
35245;SDS011;21379;50.962;6.960;2023-12-04T09:05:36;11.85;;;5.30;;
35245;SDS011;21379;50.962;6.960;2023-12-04T09:08:03;10.98;;;5.35;;
35245;SDS011;21379;50.962;6.960;2023-12-04T09:10:30;13.52;;;5.72;;
35245;SDS011;21379;50.962;6.960;2023-12-04T09:12:56;11.90;;;6.28;;
35245;SDS011;21379;50.962;6.960;2023-12-04T09:15:23;13.20;;;6.07;;
35245;SDS011;21379;50.962;6.960;2023-12-04T09:17:51;11.55;;;6.38;;
35245;SDS011;21379;50.962;6.960;2023-12-04T09:20:18;11.20;;;5.35;;
35245;SDS011;21379;50.962;6.960;2023-12-04T09:22:44;11.18;;;4.78;;
35245;SDS011;21379;50.962;6.960;2023-12-04T09:25:11;12.43;;;6.28;;
35245;SDS011;21379;50.962;6.960;2023-12-04T09:27:38;10.20;;;5.25;;
35245;SDS011;21379;50.962;6.960;2023-12-04T09:30:05;11.45;;;5.15;;
35245;SDS011;21379;50.962;6.960;2023-12-04T09:32:33;12.15;;;6.20;;
35245;SDS011;21379;50.962;6.960;2023-12-04T09:35:01;12.30;;;6.00;;
35245;SDS011;21379;50.962;6.960;2023-12-04T09:37:28;10.45;;;5.47;;
35245;SDS011;21379;50.962;6.960;2023-12-04T09:39:55;11.70;;;5.85;;
35245;SDS011;21379;50.962;6.960;2023-12-04T09:42:22;11.73;;;5.65;;
35245;SDS011;21379;50.962;6.960;2023-12-04T09:44:49;13.20;;;5.75;;
35245;SDS011;21379;50.962;6.960;2023-12-04T09:47:19;11.88;;;5.63;;
35245;SDS011;21379;50.962;6.960;2023-12-04T09:49:46;10.68;;;5.97;;
35245;SDS011;21379;50.962;6.960;2023-12-04T09:52:15;9.80;;;5.10;;
35245;SDS011;21379;50.962;6.960;2023-12-04T09:54:42;9.43;;;4.57;;
35245;SDS011;21379;50.962;6.960;2023-12-04T09:57:10;10.75;;;5.30;;
35245;SDS011;21379;50.962;6.960;2023-12-04T09:59:38;12.25;;;6.35;;
35245;SDS011;21379;50.962;6.960;2023-12-04T10:02:04;11.35;;;6.03;;
35245;SDS011;21379;50.962;6.960;2023-12-04T10:04:32;12.75;;;5.43;;
35245;SDS011;21379;50.962;6.960;2023-12-04T10:06:59;13.45;;;5.35;;
35245;SDS011;21379;50.962;6.960;2023-12-04T10:09:30;11.02;;;5.65;;
35245;SDS011;21379;50.962;6.960;2023-12-04T10:11:57;12.85;;;5.68;;
35245;SDS011;21379;50.962;6.960;2023-12-04T10:14:24;9.73;;;5.75;;
35245;SDS011;21379;50.962;6.960;2023-12-04T10:16:50;12.00;;;5.05;;
35245;SDS011;21379;50.962;6.960;2023-12-04T10:19:19;12.13;;;5.88;;
35245;SDS011;21379;50.962;6.960;2023-12-04T10:21:48;13.05;;;5.43;;
35245;SDS011;21379;50.962;6.960;2023-12-04T10:24:28;13.25;;;5.72;;
35245;SDS011;21379;50.962;6.960;2023-12-04T10:26:57;11.55;;;5.55;;
35245;SDS011;21379;50.962;6.960;2023-12-04T10:29:26;13.45;;;6.07;;
35245;SDS011;21379;50.962;6.960;2023-12-04T10:31:55;10.07;;;5.05;;
35245;SDS011;21379;50.962;6.960;2023-12-04T10:34:22;10.55;;;5.55;;
35245;SDS011;21379;50.962;6.960;2023-12-04T10:36:51;11.65;;;4.80;;
35245;SDS011;21379;50.962;6.960;2023-12-04T10:39:17;9.63;;;5.78;;
35245;SDS011;21379;50.962;6.960;2023-12-04T10:41:45;9.18;;;5.63;;
35245;SDS011;21379;50.962;6.960;2023-12-04T10:44:25;11.20;;;4.95;;
35245;SDS011;21379;50.962;6.960;2023-12-04T10:46:52;13.32;;;6.20;;
35245;SDS011;21379;50.962;6.960;2023-12-04T10:49:19;11.25;;;5.85;;
35245;SDS011;21379;50.962;6.960;2023-12-04T10:51:46;10.27;;;5.07;;
35245;SDS011;21379;50.962;6.960;2023-12-04T10:54:13;11.45;;;4.93;;
35245;SDS011;21379;50.962;6.960;2023-12-04T10:56:40;9.77;;;5.18;;
35245;SDS011;21379;50.962;6.960;2023-12-04T11:01:37;8.93;;;5.50;;
35245;SDS011;21379;50.962;6.960;2023-12-04T11:04:04;10.45;;;5.88;;
35245;SDS011;21379;50.962;6.960;2023-12-04T11:08:59;16.17;;;6.05;;
35245;SDS011;21379;50.962;6.960;2023-12-04T11:11:26;12.70;;;5.32;;
35245;SDS011;21379;50.962;6.960;2023-12-04T11:13:56;12.75;;;5.32;;
35245;SDS011;21379;50.962;6.960;2023-12-04T11:16:27;11.57;;;6.10;;
35245;SDS011;21379;50.962;6.960;2023-12-04T11:19:13;13.20;;;5.82;;
35245;SDS011;21379;50.962;6.960;2023-12-04T11:21:43;11.60;;;5.43;;
35245;SDS011;21379;50.962;6.960;2023-12-04T11:24:12;12.55;;;6.57;;
35245;SDS011;21379;50.962;6.960;2023-12-04T11:26:39;12.60;;;6.38;;
35245;SDS011;21379;50.962;6.960;2023-12-04T11:29:06;14.25;;;6.80;;
35245;SDS011;21379;50.962;6.960;2023-12-04T11:31:35;15.40;;;6.53;;
35245;SDS011;21379;50.962;6.960;2023-12-04T11:34:02;13.57;;;6.57;;
35245;SDS011;21379;50.962;6.960;2023-12-04T11:36:29;13.27;;;6.95;;
35245;SDS011;21379;50.962;6.960;2023-12-04T11:38:56;12.98;;;6.32;;
35245;SDS011;21379;50.962;6.960;2023-12-04T11:41:23;11.55;;;6.15;;
35245;SDS011;21379;50.962;6.960;2023-12-04T11:43:51;14.10;;;6.57;;
35245;SDS011;21379;50.962;6.960;2023-12-04T11:46:19;14.55;;;7.30;;
35245;SDS011;21379;50.962;6.960;2023-12-04T11:48:49;16.92;;;7.85;;
35245;SDS011;21379;50.962;6.960;2023-12-04T11:51:44;17.17;;;7.95;;
35245;SDS011;21379;50.962;6.960;2023-12-04T11:54:14;15.45;;;6.80;;
35245;SDS011;21379;50.962;6.960;2023-12-04T11:56:43;16.27;;;7.88;;
35245;SDS011;21379;50.962;6.960;2023-12-04T11:59:23;15.52;;;7.55;;
35245;SDS011;21379;50.962;6.960;2023-12-04T12:01:50;15.15;;;7.80;;
35245;SDS011;21379;50.962;6.960;2023-12-04T12:04:19;18.60;;;8.35;;
35245;SDS011;21379;50.962;6.960;2023-12-04T12:06:46;15.98;;;7.82;;
35245;SDS011;21379;50.962;6.960;2023-12-04T12:09:13;14.07;;;6.18;;
35245;SDS011;21379;50.962;6.960;2023-12-04T12:11:40;18.30;;;7.72;;
35245;SDS011;21379;50.962;6.960;2023-12-04T12:14:07;16.02;;;8.07;;
35245;SDS011;21379;50.962;6.960;2023-12-04T12:16:35;15.73;;;7.55;;
35245;SDS011;21379;50.962;6.960;2023-12-04T12:19:02;18.13;;;8.60;;
35245;SDS011;21379;50.962;6.960;2023-12-04T12:21:33;16.90;;;7.88;;
35245;SDS011;21379;50.962;6.960;2023-12-04T12:23:59;16.20;;;7.45;;
35245;SDS011;21379;50.962;6.960;2023-12-04T12:26:26;19.02;;;7.90;;
35245;SDS011;21379;50.962;6.960;2023-12-04T12:28:54;17.75;;;8.23;;
35245;SDS011;21379;50.962;6.960;2023-12-04T12:31:21;18.88;;;8.70;;
35245;SDS011;21379;50.962;6.960;2023-12-04T12:33:48;13.30;;;6.85;;
35245;SDS011;21379;50.962;6.960;2023-12-04T12:36:18;18.67;;;6.97;;
35245;SDS011;21379;50.962;6.960;2023-12-04T12:38:46;16.88;;;8.60;;
35245;SDS011;21379;50.962;6.960;2023-12-04T12:41:15;20.08;;;7.90;;
35245;SDS011;21379;50.962;6.960;2023-12-04T12:43:42;23.52;;;8.10;;
35245;SDS011;21379;50.962;6.960;2023-12-04T12:46:09;22.23;;;9.05;;
35245;SDS011;21379;50.962;6.960;2023-12-04T12:48:36;19.77;;;8.13;;
35245;SDS011;21379;50.962;6.960;2023-12-04T12:51:03;15.27;;;7.68;;
35245;SDS011;21379;50.962;6.960;2023-12-04T12:53:32;17.75;;;7.80;;
35245;SDS011;21379;50.962;6.960;2023-12-04T12:56:00;16.38;;;7.88;;
35245;SDS011;21379;50.962;6.960;2023-12-04T12:58:27;18.80;;;8.40;;
35245;SDS011;21379;50.962;6.960;2023-12-04T13:00:54;16.30;;;7.70;;
35245;SDS011;21379;50.962;6.960;2023-12-04T13:03:21;18.58;;;8.40;;
35245;SDS011;21379;50.962;6.960;2023-12-04T13:05:48;16.83;;;7.55;;
35245;SDS011;21379;50.962;6.960;2023-12-04T13:08:14;16.58;;;8.25;;
35245;SDS011;21379;50.962;6.960;2023-12-04T13:10:41;16.08;;;7.82;;
35245;SDS011;21379;50.962;6.960;2023-12-04T13:13:10;16.23;;;6.97;;
35245;SDS011;21379;50.962;6.960;2023-12-04T13:15:37;17.73;;;7.57;;
35245;SDS011;21379;50.962;6.960;2023-12-04T13:18:04;16.23;;;7.68;;
35245;SDS011;21379;50.962;6.960;2023-12-04T13:20:31;16.60;;;7.65;;
35245;SDS011;21379;50.962;6.960;2023-12-04T13:22:57;17.05;;;7.80;;
35245;SDS011;21379;50.962;6.960;2023-12-04T13:25:24;16.83;;;7.25;;
35245;SDS011;21379;50.962;6.960;2023-12-04T13:27:51;15.38;;;8.07;;
35245;SDS011;21379;50.962;6.960;2023-12-04T13:30:19;14.65;;;6.70;;
35245;SDS011;21379;50.962;6.960;2023-12-04T13:32:46;14.18;;;6.82;;
35245;SDS011;21379;50.962;6.960;2023-12-04T13:35:15;17.23;;;8.18;;
35245;SDS011;21379;50.962;6.960;2023-12-04T13:37:42;14.50;;;6.70;;
35245;SDS011;21379;50.962;6.960;2023-12-04T13:40:09;16.77;;;7.57;;
35245;SDS011;21379;50.962;6.960;2023-12-04T13:42:41;12.02;;;6.47;;
35245;SDS011;21379;50.962;6.960;2023-12-04T13:45:26;17.02;;;6.60;;
35245;SDS011;21379;50.962;6.960;2023-12-04T13:47:53;11.90;;;5.85;;
35245;SDS011;21379;50.962;6.960;2023-12-04T13:50:20;12.95;;;7.32;;
35245;SDS011;21379;50.962;6.960;2023-12-04T13:52:46;13.55;;;7.13;;
35245;SDS011;21379;50.962;6.960;2023-12-04T13:55:20;15.40;;;6.18;;
35245;SDS011;21379;50.962;6.960;2023-12-04T13:58:01;12.70;;;6.47;;
35245;SDS011;21379;50.962;6.960;2023-12-04T14:00:36;14.40;;;6.40;;
35245;SDS011;21379;50.962;6.960;2023-12-04T14:03:03;11.75;;;6.40;;
35245;SDS011;21379;50.962;6.960;2023-12-04T14:05:31;12.40;;;5.72;;
35245;SDS011;21379;50.962;6.960;2023-12-04T14:07:57;9.77;;;4.60;;
35245;SDS011;21379;50.962;6.960;2023-12-04T14:10:27;12.70;;;6.55;;
35245;SDS011;21379;50.962;6.960;2023-12-04T14:12:54;11.45;;;6.05;;
35245;SDS011;21379;50.962;6.960;2023-12-04T14:15:21;10.50;;;5.13;;
35245;SDS011;21379;50.962;6.960;2023-12-04T14:17:49;11.52;;;5.38;;
35245;SDS011;21379;50.962;6.960;2023-12-04T14:20:16;11.27;;;5.85;;
35245;SDS011;21379;50.962;6.960;2023-12-04T14:22:44;13.82;;;6.85;;
35245;SDS011;21379;50.962;6.960;2023-12-04T14:27:38;9.90;;;4.63;;
35245;SDS011;21379;50.962;6.960;2023-12-04T14:30:06;10.07;;;5.20;;
35245;SDS011;21379;50.962;6.960;2023-12-04T14:32:34;8.82;;;4.57;;
35245;SDS011;21379;50.962;6.960;2023-12-04T14:35:06;11.48;;;5.47;;
35245;SDS011;21379;50.962;6.960;2023-12-04T14:37:33;9.00;;;4.55;;
35245;SDS011;21379;50.962;6.960;2023-12-04T14:40:00;11.65;;;5.97;;
35245;SDS011;21379;50.962;6.960;2023-12-04T14:42:29;9.18;;;4.22;;
35245;SDS011;21379;50.962;6.960;2023-12-04T14:44:56;10.75;;;5.32;;